createdAt,value
2023-05-14T00:01:36.130Z,82.50
2023-05-14T00:04:03.697Z,83.15
2023-05-14T00:06:30.527Z,84.16
2023-05-14T00:08:57.421Z,84.58
2023-05-14T00:11:24.119Z,85.25
2023-05-14T00:13:50.991Z,84.57
2023-05-14T00:16:17.674Z,83.99
2023-05-14T00:18:44.360Z,83.25
2023-05-14T00:21:11.079Z,84.19
2023-05-14T00:23:37.676Z,84.35
2023-05-14T00:26:04.578Z,83.93
2023-05-14T00:28:31.208Z,84.62
2023-05-14T00:30:57.927Z,85.72
2023-05-14T00:33:24.717Z,86.09
2023-05-14T00:35:51.764Z,86.40
2023-05-14T00:38:19.485Z,86.85
2023-05-14T00:40:51.835Z,85.77
2023-05-14T00:43:20.706Z,85.13
2023-05-14T00:45:52.254Z,84.71
2023-05-14T00:48:20.137Z,85.33
2023-05-14T00:50:47.112Z,85.72
2023-05-14T00:53:14.058Z,87.09
2023-05-14T00:55:42.211Z,87.74
2023-05-14T00:58:13.689Z,88.62
2023-05-14T01:00:41.569Z,88.55
2023-05-14T01:03:09.289Z,89.40
2023-05-14T01:06:02.804Z,89.48
2023-05-14T01:09:23.793Z,89.02
2023-05-14T01:12:02.868Z,89.65
2023-05-14T01:14:37.703Z,90.09
2023-05-14T01:17:06.201Z,89.94
2023-05-14T01:19:52.108Z,90.82
2023-05-14T01:22:18.775Z,91.34
2023-05-14T01:24:45.404Z,91.41
2023-05-14T01:27:21.159Z,92.12
2023-05-14T01:30:08.654Z,92.21
2023-05-14T01:32:36.640Z,92.93
2023-05-14T01:35:04.487Z,93.03
2023-05-14T01:37:32.495Z,93.39
2023-05-14T01:40:00.423Z,93.84
2023-05-14T01:42:28.565Z,94.24
2023-05-14T01:44:56.055Z,94.49
2023-05-14T01:47:22.728Z,94.97
2023-05-14T01:49:49.479Z,95.19
2023-05-14T01:52:20.862Z,95.23
2023-05-14T01:54:48.635Z,95.64
2023-05-14T01:57:15.496Z,96.19
2023-05-14T01:59:42.089Z,96.96
2023-05-14T02:02:08.652Z,96.44
2023-05-14T02:04:35.687Z,96.51
2023-05-14T02:07:02.327Z,97.73
2023-05-14T02:09:29.217Z,97.77
2023-05-14T02:11:55.852Z,97.92
2023-05-14T02:14:22.520Z,98.58
2023-05-14T02:16:49.126Z,99.36
2023-05-14T02:19:15.786Z,98.83
2023-05-14T02:21:42.393Z,98.69
2023-05-14T02:24:08.960Z,98.88
2023-05-14T02:26:35.526Z,98.77
2023-05-14T02:29:02.140Z,98.34
2023-05-14T02:31:28.869Z,99.03
2023-05-14T02:33:55.773Z,99.30
2023-05-14T02:36:22.774Z,100.00
2023-05-14T02:38:49.706Z,100.00
2023-05-14T02:41:16.431Z,100.00
2023-05-14T02:43:43.036Z,100.00
2023-05-14T02:46:09.636Z,100.00
2023-05-14T02:48:36.261Z,99.78
2023-05-14T02:51:02.918Z,99.53
2023-05-14T02:53:29.576Z,99.21
2023-05-14T02:55:56.231Z,99.46
2023-05-14T02:58:23.379Z,99.40
2023-05-14T03:00:54.059Z,99.20
2023-05-14T03:03:21.300Z,99.46
2023-05-14T03:05:48.430Z,100.00
2023-05-14T03:08:15.102Z,100.00
2023-05-14T03:10:41.719Z,100.00
2023-05-14T03:13:08.362Z,100.00
2023-05-14T03:15:35.057Z,100.00
2023-05-14T03:18:01.687Z,100.00
2023-05-14T03:20:28.402Z,100.00
2023-05-14T03:22:56.149Z,100.00
2023-05-14T03:25:22.873Z,100.00
2023-05-14T03:27:49.546Z,100.00
2023-05-14T03:30:17.421Z,100.00
2023-05-14T03:32:45.479Z,99.68
2023-05-14T03:35:12.190Z,99.23
2023-05-14T03:37:38.797Z,99.00
2023-05-14T03:40:06.349Z,99.58
2023-05-14T03:42:32.938Z,99.90
2023-05-14T03:44:59.656Z,100.00
2023-05-14T03:47:26.345Z,100.00
2023-05-14T03:49:53.545Z,99.93
2023-05-14T03:52:20.122Z,99.99
2023-05-14T03:54:46.812Z,100.00
2023-05-14T03:57:15.003Z,99.27
2023-05-14T03:59:41.623Z,99.04
2023-05-14T04:02:08.274Z,99.45
2023-05-14T04:04:34.981Z,99.64
2023-05-14T04:07:02.488Z,100.00
2023-05-14T04:09:29.108Z,100.00
2023-05-14T04:11:56.614Z,99.44
2023-05-14T04:14:23.331Z,98.96
2023-05-14T04:16:49.989Z,98.65
2023-05-14T04:19:16.706Z,99.67
2023-05-14T04:21:43.450Z,100.00
2023-05-14T04:24:09.955Z,100.00
2023-05-14T04:26:36.518Z,100.00
2023-05-14T04:29:03.479Z,100.00
2023-05-14T04:31:30.476Z,100.00
2023-05-14T04:33:57.099Z,100.00
2023-05-14T04:36:23.809Z,100.00
2023-05-14T04:38:50.678Z,100.00
2023-05-14T04:41:17.342Z,100.00
2023-05-14T04:43:43.865Z,100.00
2023-05-14T04:46:10.496Z,100.00
2023-05-14T04:48:37.363Z,100.00
2023-05-14T04:51:05.618Z,100.00
2023-05-14T04:53:33.745Z,100.00
2023-05-14T04:56:00.388Z,100.00
2023-05-14T04:58:29.122Z,100.00
2023-05-14T05:00:55.720Z,100.00
2023-05-14T05:03:22.433Z,100.00
2023-05-14T05:05:49.231Z,99.29
2023-05-14T05:08:15.989Z,99.36
2023-05-14T05:10:42.537Z,97.97
2023-05-14T05:13:09.118Z,96.26
2023-05-14T05:15:35.787Z,96.64
2023-05-14T05:18:02.534Z,96.28
2023-05-14T05:20:29.218Z,96.72
2023-05-14T05:22:55.758Z,96.01
2023-05-14T05:25:22.406Z,95.60
2023-05-14T05:27:49.042Z,94.97
2023-05-14T05:30:18.026Z,94.80
2023-05-14T05:32:44.983Z,94.02
2023-05-14T05:35:11.954Z,93.10
2023-05-14T05:37:38.564Z,92.61
2023-05-14T05:40:06.491Z,91.89
2023-05-14T05:42:33.089Z,90.66
2023-05-14T05:44:59.650Z,89.01
2023-05-14T05:47:26.393Z,87.73
2023-05-14T05:49:53.999Z,86.46
2023-05-14T05:52:20.696Z,86.51
2023-05-14T05:54:47.356Z,86.98
2023-05-14T05:57:13.945Z,87.67
2023-05-14T05:59:40.535Z,87.21
2023-05-14T06:02:07.245Z,85.72
2023-05-14T06:04:33.813Z,85.71
2023-05-14T06:07:00.504Z,84.90
2023-05-14T06:09:27.053Z,85.27
2023-05-14T06:11:53.580Z,85.65
2023-05-14T06:14:20.163Z,85.34
2023-05-14T06:16:46.866Z,85.04
2023-05-14T06:19:13.835Z,84.62
2023-05-14T06:21:40.759Z,85.38
2023-05-14T06:24:07.543Z,86.39
2023-05-14T06:26:34.141Z,86.39
2023-05-14T06:29:01.081Z,87.44
2023-05-14T06:31:27.705Z,89.04
2023-05-14T06:33:54.286Z,87.78
2023-05-14T06:36:21.350Z,88.08
2023-05-14T06:38:47.937Z,87.60
2023-05-14T06:41:14.554Z,87.67
2023-05-14T06:43:41.166Z,85.91
2023-05-14T06:46:07.690Z,86.90
2023-05-14T06:48:34.321Z,86.16
2023-05-14T06:51:01.039Z,85.03
2023-05-14T06:53:27.565Z,84.42
2023-05-14T06:55:54.247Z,86.08
2023-05-14T06:58:20.939Z,86.42
2023-05-14T07:00:48.448Z,85.46
2023-05-14T07:03:15.039Z,84.84
2023-05-14T07:05:42.090Z,85.84
2023-05-14T07:08:08.759Z,84.43
2023-05-14T07:10:35.459Z,82.96
2023-05-14T07:13:03.311Z,84.50
2023-05-14T07:15:29.996Z,84.53
2023-05-14T07:17:56.937Z,81.50
2023-05-14T07:20:26.853Z,81.55
2023-05-14T07:22:53.824Z,81.52
2023-05-14T07:25:20.420Z,79.52
2023-05-14T07:27:47.101Z,77.26
2023-05-14T07:30:18.086Z,77.61
2023-05-14T07:32:44.864Z,79.42
2023-05-14T07:35:12.446Z,76.90
2023-05-14T07:37:39.238Z,75.72
2023-05-14T07:40:06.458Z,78.50
2023-05-14T07:42:37.177Z,75.74
2023-05-14T07:45:05.584Z,74.58
2023-05-14T07:47:33.264Z,73.37
2023-05-14T07:49:59.973Z,75.46
2023-05-14T07:52:26.673Z,75.47
2023-05-14T07:54:53.532Z,73.91
2023-05-14T07:57:20.286Z,72.70
2023-05-14T07:59:48.546Z,73.09
2023-05-14T08:02:16.845Z,74.31
2023-05-14T08:04:43.871Z,71.90
2023-05-14T08:07:11.102Z,71.80
2023-05-14T08:09:37.809Z,70.48
2023-05-14T08:12:04.896Z,69.40
2023-05-14T08:14:31.494Z,71.70
2023-05-14T08:16:58.241Z,68.52
2023-05-14T08:19:27.204Z,67.43
2023-05-14T08:21:53.914Z,69.97
2023-05-14T08:24:20.805Z,68.98
2023-05-14T08:26:47.359Z,69.87
2023-05-14T08:29:16.138Z,66.34
2023-05-14T08:31:43.370Z,67.98
2023-05-14T08:34:10.024Z,67.30
2023-05-14T08:36:36.581Z,66.07
2023-05-14T08:39:28.508Z,69.67
2023-05-14T08:41:58.244Z,69.01
2023-05-14T08:44:45.635Z,66.49
2023-05-14T08:47:15.428Z,67.88
2023-05-14T08:49:44.988Z,71.40
2023-05-14T08:52:12.383Z,67.96
2023-05-14T08:54:40.296Z,66.64
2023-05-14T08:57:10.020Z,67.98
2023-05-14T08:59:37.002Z,66.81
2023-05-14T09:02:06.759Z,64.58
2023-05-14T09:04:34.407Z,62.55
2023-05-14T09:07:03.972Z,63.28
2023-05-14T09:09:31.281Z,63.08
2023-05-14T09:11:57.919Z,63.90
2023-05-14T09:14:24.636Z,63.13
2023-05-14T09:16:51.690Z,60.89
2023-05-14T09:19:19.450Z,63.63
2023-05-14T09:21:47.721Z,59.69
2023-05-14T09:24:22.223Z,57.73
2023-05-14T09:26:57.024Z,59.81
2023-05-14T09:29:28.842Z,55.25
2023-05-14T09:31:56.825Z,55.04
2023-05-14T09:34:28.664Z,59.47
2023-05-14T09:37:03.756Z,55.41
2023-05-14T09:39:31.794Z,56.59
2023-05-14T09:41:58.485Z,55.71
2023-05-14T09:44:25.652Z,55.26
2023-05-14T09:46:53.132Z,56.45
2023-05-14T09:49:19.960Z,55.66
2023-05-14T09:51:46.848Z,57.37
2023-05-14T09:54:13.424Z,56.35
2023-05-14T09:56:40.295Z,54.48
2023-05-14T09:59:32.781Z,52.69
2023-05-14T10:02:00.179Z,52.99
2023-05-14T10:04:26.881Z,52.47
2023-05-14T10:06:54.785Z,55.31
2023-05-14T10:09:26.133Z,53.39
2023-05-14T10:11:54.215Z,51.40
2023-05-14T10:14:33.589Z,52.55
2023-05-14T10:17:03.111Z,54.88
2023-05-14T10:19:35.180Z,52.63
2023-05-14T10:22:07.661Z,50.41
2023-05-14T10:24:35.318Z,52.09
2023-05-14T10:27:02.354Z,48.79
2023-05-14T10:29:34.407Z,49.72
2023-05-14T10:32:06.279Z,47.30
2023-05-14T10:34:41.446Z,49.71
2023-05-14T10:37:10.784Z,49.87
2023-05-14T10:39:49.466Z,48.32
2023-05-14T10:42:45.362Z,49.41
2023-05-14T10:45:14.910Z,48.54
2023-05-14T10:47:47.120Z,50.60
2023-05-14T10:50:15.749Z,48.78
2023-05-14T10:52:43.883Z,51.01
2023-05-14T10:55:14.272Z,49.39
2023-05-14T10:57:43.391Z,50.68
2023-05-14T11:00:11.356Z,51.24
2023-05-14T11:02:40.962Z,49.96
2023-05-14T11:05:13.778Z,49.38
2023-05-14T11:07:42.388Z,52.30
2023-05-14T11:10:12.108Z,51.63
2023-05-14T11:12:41.182Z,48.49
2023-05-14T11:15:28.285Z,47.52
2023-05-14T11:17:55.462Z,48.40
2023-05-14T11:20:22.573Z,46.90
2023-05-14T11:22:51.663Z,48.17
2023-05-14T11:25:18.915Z,48.24
2023-05-14T11:27:46.984Z,50.04
2023-05-14T11:30:18.920Z,50.48
2023-05-14T11:32:47.116Z,50.39
2023-05-14T11:35:14.836Z,50.66
2023-05-14T11:37:42.187Z,50.49
2023-05-14T11:40:14.540Z,51.25
2023-05-14T11:42:41.794Z,51.49
2023-05-14T11:45:11.984Z,49.88
2023-05-14T11:47:40.641Z,49.16
2023-05-14T11:50:09.394Z,48.23
2023-05-14T11:52:41.468Z,49.12
2023-05-14T11:55:14.566Z,49.17
2023-05-14T11:57:41.316Z,49.18
2023-05-14T12:00:21.461Z,50.28
2023-05-14T12:02:50.018Z,50.71
2023-05-14T12:05:17.213Z,46.68
2023-05-14T12:07:47.746Z,49.49
2023-05-14T12:10:15.000Z,47.07
2023-05-14T12:12:46.062Z,46.79
2023-05-14T12:15:14.093Z,47.07
2023-05-14T12:17:50.417Z,48.35
2023-05-14T12:20:17.406Z,47.42
2023-05-14T12:22:44.118Z,48.91
2023-05-14T12:25:14.325Z,46.52
2023-05-14T12:27:44.755Z,48.94
2023-05-14T12:30:20.651Z,47.55
2023-05-14T12:32:52.717Z,47.73
2023-05-14T12:35:21.556Z,43.20
2023-05-14T12:37:48.236Z,43.59
2023-05-14T12:40:14.965Z,47.18
2023-05-14T12:42:41.885Z,44.47
2023-05-14T12:45:09.026Z,44.16
2023-05-14T12:47:36.782Z,45.87
2023-05-14T12:50:04.019Z,46.66
2023-05-14T12:55:01.237Z,45.42
2023-05-14T12:57:28.286Z,43.34
2023-05-14T12:59:55.219Z,44.73
2023-05-14T13:02:21.938Z,46.63
2023-05-14T13:04:48.551Z,44.47
2023-05-14T13:07:15.529Z,44.46
2023-05-14T13:09:42.171Z,44.75
2023-05-14T13:12:09.209Z,44.21
2023-05-14T13:14:36.434Z,44.34
2023-05-14T13:17:04.888Z,46.29
2023-05-14T13:19:31.637Z,45.09
2023-05-14T13:21:58.331Z,44.14
2023-05-14T13:24:27.819Z,44.97
2023-05-14T13:26:54.457Z,44.20
2023-05-14T13:29:20.979Z,43.29
2023-05-14T13:31:47.968Z,43.28
2023-05-14T13:34:14.691Z,42.84
2023-05-14T13:36:43.478Z,44.27
2023-05-14T13:39:14.464Z,48.11
2023-05-14T13:41:41.825Z,46.98
2023-05-14T13:44:08.412Z,45.86
2023-05-14T13:46:35.119Z,44.79
2023-05-14T13:49:01.835Z,44.75
2023-05-14T13:51:28.533Z,44.74
2023-05-14T13:53:55.787Z,44.47
2023-05-14T13:56:22.810Z,45.34
2023-05-14T13:58:49.753Z,43.66
2023-05-14T14:01:16.422Z,46.03
2023-05-14T14:03:43.066Z,44.30
2023-05-14T14:06:09.650Z,45.45
2023-05-14T14:08:36.434Z,46.51
2023-05-14T14:11:03.107Z,45.93
2023-05-14T14:13:29.668Z,45.44
2023-05-14T14:15:56.856Z,41.91
2023-05-14T14:18:23.448Z,43.22
2023-05-14T14:20:50.066Z,41.96
2023-05-14T14:23:16.740Z,43.25
2023-05-14T14:25:43.546Z,43.94
2023-05-14T14:28:10.286Z,43.59
2023-05-14T14:30:36.885Z,43.60
2023-05-14T14:33:03.695Z,44.44
2023-05-14T14:35:30.798Z,43.75
2023-05-14T14:37:57.394Z,45.29
2023-05-14T14:40:24.425Z,42.41
2023-05-14T14:42:51.040Z,43.46
2023-05-14T14:45:17.788Z,41.52
2023-05-14T14:47:46.323Z,41.93
2023-05-14T14:50:13.678Z,43.35
2023-05-14T14:52:45.474Z,44.55
2023-05-14T14:55:13.052Z,45.33
2023-05-14T14:57:39.917Z,46.95
2023-05-14T15:00:07.353Z,47.75
2023-05-14T15:02:34.756Z,48.31
2023-05-14T15:05:01.509Z,47.20
2023-05-14T15:07:29.575Z,46.01
2023-05-14T15:09:56.296Z,46.12
2023-05-14T15:12:23.038Z,46.12
2023-05-14T15:14:49.631Z,45.24
2023-05-14T15:17:16.213Z,46.86
2023-05-14T15:19:42.961Z,49.19
2023-05-14T15:22:09.671Z,49.88
2023-05-14T15:24:36.328Z,51.09
2023-05-14T15:27:02.954Z,51.05
2023-05-14T15:29:29.577Z,49.95
2023-05-14T15:31:56.756Z,50.18
2023-05-14T15:34:23.601Z,49.68
2023-05-14T15:36:50.507Z,49.02
2023-05-14T15:39:17.124Z,48.48
2023-05-14T15:41:45.613Z,48.57
2023-05-14T15:44:12.315Z,48.88
2023-05-14T15:46:39.033Z,47.97
2023-05-14T15:49:06.023Z,46.97
2023-05-14T15:51:32.868Z,48.00
2023-05-14T15:53:59.464Z,48.36
2023-05-14T15:56:26.741Z,47.57
2023-05-14T15:58:53.417Z,46.58
2023-05-14T16:01:20.101Z,46.73
2023-05-14T16:03:46.888Z,46.30
2023-05-14T16:06:13.847Z,46.30
2023-05-14T16:08:40.530Z,46.60
2023-05-14T16:11:07.667Z,47.07
2023-05-14T16:13:35.733Z,47.00
2023-05-14T16:16:02.500Z,46.96
2023-05-14T16:18:29.651Z,47.25
2023-05-14T16:20:56.451Z,49.06
2023-05-14T16:23:23.039Z,47.86
2023-05-14T16:25:50.125Z,47.96
2023-05-14T16:28:16.945Z,47.42
2023-05-14T16:30:43.677Z,47.64
2023-05-14T16:33:10.432Z,47.63
2023-05-14T16:35:39.340Z,49.13
2023-05-14T16:38:06.020Z,50.72
2023-05-14T16:40:32.681Z,50.84
2023-05-14T16:42:59.315Z,51.53
2023-05-14T16:45:26.211Z,50.43
2023-05-14T16:47:53.506Z,50.46
2023-05-14T16:50:20.373Z,50.55
2023-05-14T16:52:46.962Z,51.85
2023-05-14T16:55:13.619Z,50.16
2023-05-14T16:57:40.441Z,52.20
2023-05-14T17:00:07.810Z,51.11
2023-05-14T17:02:34.469Z,51.67
2023-05-14T17:05:01.715Z,51.14
2023-05-14T17:07:28.418Z,52.26
2023-05-14T17:09:55.185Z,51.57
2023-05-14T17:12:21.819Z,52.47
2023-05-14T17:14:48.409Z,52.62
2023-05-14T17:17:15.014Z,52.29
2023-05-14T17:19:42.330Z,51.78
2023-05-14T17:22:09.109Z,51.39
2023-05-14T17:24:36.469Z,51.21
2023-05-14T17:27:03.329Z,51.77
2023-05-14T17:29:29.951Z,52.95
2023-05-14T17:31:56.569Z,53.15
2023-05-14T17:34:23.357Z,54.87
2023-05-14T17:36:50.390Z,53.50
2023-05-14T17:39:16.990Z,53.25
2023-05-14T17:41:43.739Z,52.95
2023-05-14T17:44:12.705Z,53.54
2023-05-14T17:46:39.992Z,53.35
2023-05-14T17:49:06.608Z,53.38
2023-05-14T17:51:33.292Z,52.89
2023-05-14T17:53:59.907Z,53.99
2023-05-14T17:56:26.600Z,54.01
2023-05-14T17:58:53.183Z,54.01
2023-05-14T18:01:19.836Z,54.71
2023-05-14T18:03:46.743Z,56.00
2023-05-14T18:06:13.477Z,57.49
2023-05-14T18:08:40.949Z,56.27
2023-05-14T18:11:07.489Z,56.48
2023-05-14T18:13:34.182Z,57.66
2023-05-14T18:16:01.165Z,56.61
2023-05-14T18:18:27.797Z,57.21
2023-05-14T18:20:54.530Z,58.26
2023-05-14T18:23:21.273Z,59.26
2023-05-14T18:25:48.232Z,59.97
2023-05-14T18:28:15.615Z,61.06
2023-05-14T18:30:43.467Z,63.00
2023-05-14T18:33:10.320Z,64.19
2023-05-14T18:35:37.319Z,65.20
2023-05-14T18:38:04.141Z,65.91
2023-05-14T18:40:30.830Z,65.60
2023-05-14T18:42:58.030Z,67.02
2023-05-14T18:45:25.010Z,67.53
2023-05-14T18:47:52.157Z,67.43
2023-05-14T18:50:19.016Z,67.51
2023-05-14T18:52:45.592Z,68.03
2023-05-14T18:55:15.580Z,68.54
2023-05-14T18:57:42.323Z,72.26
2023-05-14T19:00:09.595Z,75.17
2023-05-14T19:02:36.492Z,75.79
2023-05-14T19:05:03.252Z,75.20
2023-05-14T19:07:31.049Z,75.04
2023-05-14T19:09:57.567Z,74.43
2023-05-14T19:12:24.153Z,69.45
2023-05-14T19:14:50.801Z,65.55
2023-05-14T19:17:18.568Z,61.63
2023-05-14T19:19:47.014Z,61.71
2023-05-14T19:22:13.691Z,62.86
2023-05-14T19:24:40.352Z,61.18
2023-05-14T19:27:07.708Z,57.65
2023-05-14T19:29:36.788Z,56.54
2023-05-14T19:32:04.625Z,54.67
2023-05-14T19:34:31.310Z,54.95
2023-05-14T19:36:58.001Z,54.04
2023-05-14T19:39:24.920Z,53.37
2023-05-14T19:41:51.531Z,53.31
2023-05-14T19:44:18.287Z,53.43
2023-05-14T19:46:45.131Z,53.38
2023-05-14T19:49:12.119Z,54.00
2023-05-14T19:51:38.660Z,54.54
2023-05-14T19:54:05.344Z,54.45
2023-05-14T19:56:32.016Z,54.57
2023-05-14T19:58:58.787Z,55.36
2023-05-14T20:01:26.694Z,55.55
2023-05-14T20:03:53.315Z,56.23
2023-05-14T20:06:19.873Z,58.51
2023-05-14T20:08:46.453Z,58.75
2023-05-14T20:11:15.326Z,58.11
2023-05-14T20:13:41.946Z,57.72
2023-05-14T20:16:08.627Z,58.04
2023-05-14T20:18:35.269Z,58.88
2023-05-14T20:21:01.928Z,59.05
2023-05-14T20:23:28.558Z,59.35
2023-05-14T20:25:55.645Z,59.08
2023-05-14T20:28:22.249Z,57.11
2023-05-14T20:30:48.878Z,57.91
2023-05-14T20:33:15.843Z,59.87
2023-05-14T20:35:43.893Z,59.57
2023-05-14T20:38:12.555Z,60.85
2023-05-14T20:40:39.520Z,61.68
2023-05-14T20:43:06.185Z,62.46
2023-05-14T20:45:32.844Z,64.05
2023-05-14T20:47:59.448Z,64.58
2023-05-14T20:50:27.817Z,65.00
2023-05-14T20:52:55.286Z,66.06
2023-05-14T20:55:22.312Z,66.96
2023-05-14T20:57:49.815Z,67.27
2023-05-14T21:00:17.598Z,67.75
2023-05-14T21:02:44.350Z,67.57
2023-05-14T21:05:14.521Z,68.06
2023-05-14T21:07:41.319Z,67.92
2023-05-14T21:10:09.104Z,67.39
2023-05-14T21:12:40.630Z,69.19
2023-05-14T21:15:09.218Z,70.51
2023-05-14T21:17:35.901Z,70.33
2023-05-14T21:20:02.838Z,71.29
2023-05-14T21:22:29.652Z,72.47
2023-05-14T21:24:56.295Z,72.77
2023-05-14T21:27:23.218Z,72.58
2023-05-14T21:29:49.846Z,71.80
2023-05-14T21:32:16.535Z,71.96
2023-05-14T21:34:43.307Z,72.22
2023-05-14T21:37:10.035Z,72.14
2023-05-14T21:39:36.553Z,73.08
2023-05-14T21:42:03.325Z,73.21
2023-05-14T21:44:29.883Z,74.04
2023-05-14T21:46:56.439Z,74.42
2023-05-14T21:49:23.041Z,75.29
2023-05-14T21:51:53.065Z,73.38
2023-05-14T21:54:20.776Z,75.01
2023-05-14T21:56:47.669Z,75.10
2023-05-14T21:59:14.373Z,74.02
2023-05-14T22:02:04.963Z,74.79
2023-05-14T22:04:27.595Z,75.68
2023-05-14T22:06:54.279Z,76.19
2023-05-14T22:09:20.890Z,76.21
2023-05-14T22:11:47.567Z,76.08
2023-05-14T22:14:14.205Z,78.04
2023-05-14T22:16:40.923Z,78.95
2023-05-14T22:19:07.556Z,78.04
2023-05-14T22:21:34.144Z,78.04
2023-05-14T22:24:00.824Z,77.89
2023-05-14T22:26:27.417Z,78.57
2023-05-14T22:28:54.066Z,79.78
2023-05-14T22:31:20.901Z,80.97
2023-05-14T22:33:47.583Z,82.05
2023-05-14T22:36:14.243Z,84.01
2023-05-14T22:38:41.274Z,85.09
2023-05-14T22:41:07.970Z,86.21
2023-05-14T22:43:34.598Z,85.99
2023-05-14T22:46:01.355Z,84.79
2023-05-14T22:48:28.099Z,85.14
2023-05-14T22:50:54.912Z,85.33
2023-05-14T22:53:21.528Z,84.90
2023-05-14T22:55:48.165Z,85.94
2023-05-14T22:58:14.705Z,86.80
2023-05-14T23:00:41.271Z,87.02
2023-05-14T23:03:07.921Z,87.08
2023-05-14T23:05:34.623Z,86.10
2023-05-14T23:08:01.293Z,85.50
2023-05-14T23:10:27.961Z,86.06
2023-05-14T23:12:54.558Z,86.83
2023-05-14T23:15:21.105Z,87.48
2023-05-14T23:17:47.901Z,88.38
2023-05-14T23:20:14.858Z,90.29
2023-05-14T23:22:41.433Z,90.09
2023-05-14T23:25:08.639Z,89.91
2023-05-14T23:27:35.541Z,90.24
2023-05-14T23:30:03.442Z,90.24
2023-05-14T23:32:30.057Z,89.93
2023-05-14T23:34:56.783Z,90.40
2023-05-14T23:37:23.463Z,90.45
2023-05-14T23:39:50.444Z,89.89
2023-05-14T23:42:17.101Z,91.47
2023-05-14T23:44:43.756Z,89.92
2023-05-14T23:47:10.359Z,89.27
2023-05-14T23:49:37.489Z,89.40
2023-05-14T23:52:04.361Z,90.36
2023-05-14T23:54:30.904Z,91.68
2023-05-14T23:56:57.563Z,91.33
2023-05-14T23:59:24.118Z,91.65
